Time;durP1;ratioP1;P1;durP2;ratioP2;P2;SDS_P1;SDS_P2;PMS_P1;PMS_P2;Temp;Humidity;BMP_temperature;BMP_pressure;BME280_temperature;BME280_humidity;BME280_pressure;Samples;Min_cycle;Max_cycle;Signal;HPM_P1;HPM_P2
2022/01/14 00:01:57;;;;;;;67.43;20.10;;;5.30;99.90;;;;;;5090388;28;20212;-76
2022/01/14 00:04:24;;;;;;;58.77;20.17;;;5.30;99.90;;;;;;5092224;28;20272;-75
2022/01/14 00:06:51;;;;;;;67.30;20.90;;;5.20;99.90;;;;;;5096106;28;20225;-76
2022/01/14 00:09:18;;;;;;;66.73;19.87;;;5.20;99.90;;;;;;5100479;28;20233;-75
2022/01/14 00:11:52;;;;;;;68.50;21.20;;;5.30;99.90;;;;;;5094065;28;20303;-75
2022/01/14 00:14:23;;;;;;;75.13;20.77;;;5.30;99.90;;;;;;5087769;28;20677;-74
2022/01/14 00:16:52;;;;;;;67.57;20.30;;;5.30;99.90;;;;;;5098041;28;20246;-75
2022/01/14 00:19:19;;;;;;;65.70;19.67;;;5.30;99.90;;;;;;5071304;28;20247;-76
2022/01/14 00:21:46;;;;;;;64.30;19.87;;;5.30;99.90;;;;;;5088512;28;20298;-76
2022/01/14 00:32:37;;;;;;;64.57;19.43;;;5.40;99.90;;;;;;5094668;28;20215;-75
2022/01/14 00:35:04;;;;;;;55.27;19.17;;;5.40;99.90;;;;;;5092180;28;20222;-76
2022/01/14 00:37:31;;;;;;;68.53;21.00;;;5.40;99.90;;;;;;5072240;28;20706;-76
2022/01/14 00:39:57;;;;;;;54.07;20.37;;;5.40;99.90;;;;;;5093001;28;20239;-75
2022/01/14 00:42:24;;;;;;;58.20;19.67;;;5.40;99.90;;;;;;5093213;28;20209;-76
2022/01/14 00:44:51;;;;;;;63.33;20.67;;;5.40;99.90;;;;;;5090131;28;20626;-76
2022/01/14 00:47:18;;;;;;;57.00;20.73;;;5.40;99.90;;;;;;5086360;28;20231;-76
2022/01/14 00:49:45;;;;;;;66.60;21.87;;;5.50;99.90;;;;;;5081045;28;20743;-77
2022/01/14 00:52:11;;;;;;;53.17;19.20;;;5.50;99.90;;;;;;5095855;28;20212;-76
2022/01/14 00:54:38;;;;;;;58.07;19.13;;;5.50;99.90;;;;;;5086459;28;20297;-75
2022/01/14 00:59:35;;;;;;;62.47;21.33;;;5.50;99.90;;;;;;5084919;28;20296;-75
2022/01/14 01:02:02;;;;;;;65.80;22.10;;;5.50;99.90;;;;;;5090624;28;20319;-76
2022/01/14 01:04:34;;;;;;;66.17;20.83;;;5.50;99.90;;;;;;5090500;28;20204;-75
2022/01/14 01:07:03;;;;;;;60.40;20.83;;;5.50;99.90;;;;;;5095322;28;20208;-75
2022/01/14 01:09:31;;;;;;;66.97;22.47;;;5.50;99.90;;;;;;5093487;28;20242;-75
2022/01/14 01:12:14;;;;;;;63.00;22.70;;;5.40;99.90;;;;;;5089477;28;20204;-75
2022/01/14 01:14:48;;;;;;;66.57;20.80;;;5.40;99.90;;;;;;5090950;28;20243;-76
2022/01/14 01:17:16;;;;;;;70.67;22.33;;;5.40;99.90;;;;;;5086739;28;20220;-76
2022/01/14 01:19:43;;;;;;;61.17;21.33;;;5.50;99.90;;;;;;5093507;28;20209;-76
2022/01/14 01:22:10;;;;;;;62.27;20.13;;;5.40;99.90;;;;;;5098383;28;20211;-76
2022/01/14 01:24:37;;;;;;;64.00;21.07;;;5.40;99.90;;;;;;5095607;28;20204;-77
2022/01/14 01:27:07;;;;;;;62.87;20.77;;;5.40;99.90;;;;;;5093251;28;20707;-74
2022/01/14 01:32:06;;;;;;;70.27;21.43;;;5.40;99.90;;;;;;5090753;28;20305;-76
2022/01/14 01:34:34;;;;;;;66.97;22.63;;;5.40;99.90;;;;;;5094298;28;20207;-76
2022/01/14 01:37:03;;;;;;;62.57;21.70;;;5.40;99.90;;;;;;5092589;28;20294;-76
2022/01/14 01:39:34;;;;;;;57.73;20.07;;;5.40;99.90;;;;;;5079273;28;20225;-77
2022/01/14 01:42:08;;;;;;;67.07;22.10;;;5.40;99.90;;;;;;5070563;28;20239;-76
2022/01/14 01:44:38;;;;;;;62.77;20.27;;;5.30;99.90;;;;;;5062860;28;20628;-75
2022/01/14 01:47:06;;;;;;;60.93;20.37;;;5.30;99.90;;;;;;5055634;28;20232;-75
2022/01/14 01:49:35;;;;;;;68.40;21.53;;;5.40;99.90;;;;;;5081020;28;20223;-76
2022/01/14 01:52:04;;;;;;;62.43;20.20;;;5.40;99.90;;;;;;5071550;28;20201;-76
2022/01/14 01:54:31;;;;;;;71.93;21.73;;;5.40;99.90;;;;;;5075825;28;20204;-76
2022/01/14 01:56:58;;;;;;;74.97;22.47;;;5.40;99.90;;;;;;5074054;28;20206;-76
2022/01/14 01:59:26;;;;;;;62.90;20.87;;;5.40;99.90;;;;;;5071337;28;20258;-75
2022/01/14 02:01:55;;;;;;;68.77;22.23;;;5.40;99.90;;;;;;5063594;28;20281;-76
2022/01/14 02:04:23;;;;;;;64.93;20.93;;;5.40;99.90;;;;;;5076824;28;20680;-76
2022/01/14 02:06:51;;;;;;;73.00;22.63;;;5.40;99.90;;;;;;5072198;28;20645;-76
2022/01/14 02:09:18;;;;;;;63.80;20.27;;;5.40;99.90;;;;;;5073153;28;20248;-75
2022/01/14 02:11:45;;;;;;;69.97;21.80;;;5.40;99.90;;;;;;5076680;28;20274;-76
2022/01/14 02:14:27;;;;;;;70.00;21.97;;;5.40;99.90;;;;;;5073769;28;20211;-76
2022/01/14 02:17:16;;;;;;;67.97;22.50;;;5.40;99.90;;;;;;5068460;28;20316;-76
2022/01/14 02:22:09;;;;;;;70.60;21.57;;;5.40;99.90;;;;;;5073767;28;20250;-76
2022/01/14 02:22:53;;;;;;;67.80;21.97;;;5.40;99.90;;;;;;5071127;28;20276;-76
2022/01/14 02:25:29;;;;;;;91.97;22.50;;;5.40;99.90;;;;;;5070565;28;20196;-75
2022/01/14 02:28:07;;;;;;;76.20;22.63;;;5.40;99.90;;;;;;5076102;28;20215;-76
2022/01/14 02:30:39;;;;;;;76.13;22.57;;;5.40;99.90;;;;;;5068313;28;20209;-76
2022/01/14 02:33:06;;;;;;;83.07;23.40;;;5.40;99.90;;;;;;5070226;28;20305;-76
2022/01/14 02:35:34;;;;;;;72.17;23.80;;;5.30;99.90;;;;;;5066760;28;20712;-76
2022/01/14 02:38:01;;;;;;;85.40;23.40;;;5.40;99.90;;;;;;5077946;28;20211;-76
2022/01/14 02:40:28;;;;;;;73.70;22.17;;;5.40;99.90;;;;;;5085010;28;21000;-76
2022/01/14 02:42:59;;;;;;;74.30;21.93;;;5.40;99.90;;;;;;5085664;28;20214;-76
2022/01/14 02:45:30;;;;;;;72.73;22.50;;;5.40;99.90;;;;;;5089106;28;20216;-76
2022/01/14 02:47:57;;;;;;;86.33;24.73;;;5.40;99.90;;;;;;5090018;28;20298;-76
2022/01/14 02:50:25;;;;;;;77.83;23.63;;;5.30;99.90;;;;;;5093130;28;20708;-76
2022/01/14 02:55:22;;;;;;;73.47;22.60;;;5.40;99.90;;;;;;5100304;28;20294;-76
2022/01/14 02:57:51;;;;;;;86.07;24.37;;;5.30;99.90;;;;;;5091827;28;20204;-76
2022/01/14 03:00:21;;;;;;;82.30;25.30;;;5.30;99.90;;;;;;5085597;28;20231;-76
2022/01/14 03:02:49;;;;;;;78.43;23.20;;;5.30;99.90;;;;;;5094010;28;20220;-75
2022/01/14 03:05:19;;;;;;;72.20;21.63;;;5.30;99.90;;;;;;5087128;28;20208;-76
2022/01/14 03:07:47;;;;;;;79.83;23.77;;;5.30;99.90;;;;;;5085071;28;20266;-76
2022/01/14 03:10:16;;;;;;;88.93;23.40;;;5.40;99.90;;;;;;5094376;28;20627;-77
2022/01/14 03:12:43;;;;;;;87.57;23.93;;;5.40;99.90;;;;;;5099464;28;20209;-76
2022/01/14 03:15:12;;;;;;;85.93;25.90;;;5.30;99.90;;;;;;5062590;28;20215;-76
2022/01/14 03:17:39;;;;;;;85.83;23.30;;;5.30;99.90;;;;;;5088312;28;20660;-76
2022/01/14 03:20:10;;;;;;;75.57;23.47;;;5.20;99.90;;;;;;5095412;28;20579;-76
2022/01/14 03:22:41;;;;;;;80.50;23.40;;;5.30;99.90;;;;;;5073933;28;20284;-76
2022/01/14 03:27:54;;;;;;;89.70;22.83;;;5.30;99.90;;;;;;5090760;28;20226;-76
2022/01/14 03:30:20;;;;;;;81.40;23.03;;;5.20;99.90;;;;;;5074071;28;20223;-76
2022/01/14 03:32:47;;;;;;;81.77;22.13;;;5.30;99.90;;;;;;5083538;28;20219;-76
2022/01/14 03:35:14;;;;;;;81.00;23.97;;;5.30;99.90;;;;;;5095946;28;20266;-77
2022/01/14 03:37:40;;;;;;;82.53;23.13;;;5.30;99.90;;;;;;5096807;28;20211;-75
2022/01/14 03:40:08;;;;;;;74.50;22.57;;;5.40;99.90;;;;;;5069961;28;20612;-74
2022/01/14 03:42:35;;;;;;;79.30;22.37;;;5.30;99.90;;;;;;5094654;28;20199;-75
2022/01/14 03:45:02;;;;;;;90.53;25.50;;;5.30;99.90;;;;;;5092938;28;20214;-74
2022/01/14 03:47:29;;;;;;;83.17;22.97;;;5.30;99.90;;;;;;5089884;28;20225;-75
2022/01/14 03:49:56;;;;;;;100.70;23.80;;;5.30;99.90;;;;;;5086071;28;20311;-75
2022/01/14 03:52:23;;;;;;;83.80;24.73;;;5.30;99.90;;;;;;5099743;28;20275;-74
2022/01/14 03:54:49;;;;;;;101.23;24.80;;;5.30;99.90;;;;;;5111995;27;20214;-76
2022/01/14 03:57:37;;;;;;;77.23;23.73;;;5.30;99.90;;;;;;5107833;27;20215;-77
2022/01/14 04:00:05;;;;;;;87.90;23.80;;;5.30;99.90;;;;;;5112043;27;20683;-77
2022/01/14 04:02:31;;;;;;;77.13;23.43;;;5.30;99.90;;;;;;5113452;27;20217;-76
2022/01/14 04:04:58;;;;;;;83.10;23.07;;;5.30;99.90;;;;;;5109221;27;20215;-75
2022/01/14 04:07:25;;;;;;;80.70;22.73;;;5.30;99.90;;;;;;5099168;28;20331;-75
2022/01/14 04:09:51;;;;;;;89.93;25.37;;;5.30;99.90;;;;;;5107682;27;20227;-75
2022/01/14 04:12:31;;;;;;;90.47;23.63;;;5.40;99.90;;;;;;5109965;27;20285;-75
2022/01/14 04:17:24;;;;;;;87.63;24.07;;;5.30;99.90;;;;;;5112024;27;20224;-75
2022/01/14 04:19:51;;;;;;;77.07;23.20;;;5.30;99.90;;;;;;5110813;27;20294;-75
2022/01/14 04:22:18;;;;;;;88.37;22.03;;;5.30;99.90;;;;;;5096760;28;20212;-76
2022/01/14 04:24:44;;;;;;;81.93;21.80;;;5.30;99.90;;;;;;5114994;27;20206;-76
2022/01/14 04:27:11;;;;;;;75.83;21.80;;;5.30;99.90;;;;;;5111045;27;20286;-76
2022/01/14 04:29:38;;;;;;;79.93;22.73;;;5.40;99.90;;;;;;5103147;27;20241;-76
2022/01/14 04:32:05;;;;;;;82.10;22.97;;;5.30;99.90;;;;;;5107229;27;20226;-76
2022/01/14 04:34:36;;;;;;;76.87;21.57;;;5.30;99.90;;;;;;5110673;27;20612;-76
2022/01/14 04:37:03;;;;;;;82.30;22.10;;;5.30;99.90;;;;;;5112684;27;20211;-76
2022/01/14 04:39:30;;;;;;;89.03;22.07;;;5.30;99.90;;;;;;5109186;28;20233;-76
2022/01/14 04:41:58;;;;;;;85.97;22.67;;;5.30;99.90;;;;;;5118262;27;20308;-76
2022/01/14 04:44:25;;;;;;;92.13;23.13;;;5.30;99.90;;;;;;5108917;27;20549;-76
2022/01/14 04:47:12;;;;;;;87.93;23.47;;;5.40;99.90;;;;;;5102702;27;20231;-76
2022/01/14 04:49:38;;;;;;;76.63;21.37;;;5.30;99.90;;;;;;5106863;27;20217;-76
2022/01/14 04:52:06;;;;;;;84.17;23.20;;;5.30;99.90;;;;;;5111174;27;20266;-76
2022/01/14 04:54:34;;;;;;;88.67;24.07;;;5.30;99.90;;;;;;5110663;27;20213;-76
2022/01/14 04:57:02;;;;;;;83.47;23.67;;;5.20;99.90;;;;;;5111333;27;20203;-76
2022/01/14 04:59:28;;;;;;;97.47;23.17;;;5.20;99.90;;;;;;5112552;27;20303;-76
2022/01/14 05:01:57;;;;;;;88.37;21.03;;;5.20;99.90;;;;;;5112000;27;20211;-76
2022/01/14 05:04:24;;;;;;;87.13;22.17;;;5.20;99.90;;;;;;5096039;28;20208;-76
2022/01/14 05:06:58;;;;;;;79.27;22.07;;;5.20;99.90;;;;;;5116371;27;20203;-75
2022/01/14 05:09:30;;;;;;;98.13;24.40;;;5.20;99.90;;;;;;5106578;27;20713;-76
2022/01/14 05:12:05;;;;;;;83.63;22.57;;;5.20;99.90;;;;;;5111084;27;20216;-76
2022/01/14 05:14:32;;;;;;;75.47;22.63;;;5.20;99.90;;;;;;5109042;27;20655;-76
2022/01/14 05:16:59;;;;;;;85.07;22.43;;;5.10;99.90;;;;;;5106777;27;20317;-76
2022/01/14 05:19:26;;;;;;;76.77;21.90;;;5.20;99.90;;;;;;5107907;27;20482;-76
2022/01/14 05:21:53;;;;;;;88.87;23.07;;;5.20;99.90;;;;;;5106568;27;20585;-76
2022/01/14 05:24:20;;;;;;;75.93;22.07;;;5.20;99.90;;;;;;5109674;27;20652;-76
2022/01/14 05:26:47;;;;;;;81.20;21.50;;;5.10;99.90;;;;;;5092545;27;20302;-76
2022/01/14 05:29:13;;;;;;;86.87;21.07;;;5.10;99.90;;;;;;5104033;27;20664;-76
2022/01/14 05:31:44;;;;;;;86.20;22.10;;;5.10;99.90;;;;;;5113371;27;20244;-77
2022/01/14 05:34:11;;;;;;;83.23;19.20;;;5.10;99.90;;;;;;5095026;28;20246;-76
2022/01/14 05:36:38;;;;;;;64.83;19.00;;;5.10;99.90;;;;;;5108211;27;20288;-77
2022/01/14 05:39:05;;;;;;;72.13;19.40;;;5.10;99.90;;;;;;5113824;27;20340;-77
2022/01/14 05:41:32;;;;;;;87.70;20.03;;;5.20;99.90;;;;;;5109714;27;20245;-76
2022/01/14 05:43:59;;;;;;;83.67;20.43;;;5.20;99.90;;;;;;5109196;27;20213;-76
2022/01/14 05:46:26;;;;;;;79.57;19.93;;;5.10;99.90;;;;;;5102116;27;20232;-76
2022/01/14 05:48:53;;;;;;;89.43;20.27;;;5.20;99.90;;;;;;5114641;27;20204;-76
2022/01/14 05:51:20;;;;;;;88.70;20.83;;;5.20;99.90;;;;;;5106402;27;20600;-76
2022/01/14 05:53:46;;;;;;;74.63;19.73;;;5.20;99.90;;;;;;5109433;27;20214;-77
2022/01/14 05:56:13;;;;;;;76.40;19.67;;;5.20;99.90;;;;;;5112465;27;20593;-76
2022/01/14 05:58:40;;;;;;;65.20;19.57;;;5.10;99.90;;;;;;5107845;27;20326;-76
2022/01/14 06:01:07;;;;;;;73.20;20.30;;;5.10;99.90;;;;;;5105490;27;20745;-76
2022/01/14 06:03:33;;;;;;;78.13;20.07;;;5.20;99.90;;;;;;5093892;28;20784;-76
2022/01/14 06:06:00;;;;;;;74.80;21.17;;;5.10;99.90;;;;;;5100764;27;20209;-76
2022/01/14 06:08:27;;;;;;;77.50;21.43;;;5.20;99.90;;;;;;5106175;27;20202;-76
2022/01/14 06:10:53;;;;;;;76.17;20.63;;;5.20;99.90;;;;;;5109445;27;20224;-75
2022/01/14 06:13:20;;;;;;;92.13;20.50;;;5.20;99.90;;;;;;5114318;27;20211;-78
2022/01/14 06:15:47;;;;;;;74.27;19.80;;;5.20;99.90;;;;;;5108587;27;20216;-75
2022/01/14 06:18:14;;;;;;;86.77;20.40;;;5.10;99.90;;;;;;5103446;27;20219;-76
2022/01/14 06:20:40;;;;;;;77.97;19.90;;;5.20;99.90;;;;;;5111895;27;20603;-75
2022/01/14 06:23:07;;;;;;;85.60;21.27;;;5.20;99.90;;;;;;5114972;27;20534;-78
2022/01/14 06:25:34;;;;;;;74.57;21.77;;;5.20;99.90;;;;;;5106085;27;20307;-77
2022/01/14 06:28:01;;;;;;;85.53;21.83;;;5.20;99.90;;;;;;5104467;27;20243;-74
2022/01/14 06:30:27;;;;;;;98.87;22.73;;;5.20;99.90;;;;;;5104531;27;20235;-76
2022/01/14 06:32:56;;;;;;;78.90;21.10;;;5.10;99.90;;;;;;5086021;28;20224;-76
2022/01/14 06:35:23;;;;;;;81.10;22.60;;;5.10;99.90;;;;;;5105088;27;20643;-76
2022/01/14 06:37:50;;;;;;;96.63;23.07;;;5.10;99.90;;;;;;5111257;27;20289;-76
2022/01/14 06:40:17;;;;;;;70.63;21.33;;;5.00;99.90;;;;;;5108036;27;20602;-75
2022/01/14 06:42:48;;;;;;;84.80;24.90;;;5.10;99.90;;;;;;5100140;28;20596;-75
2022/01/14 06:45:15;;;;;;;86.83;22.33;;;5.10;99.90;;;;;;5100629;28;20218;-75
2022/01/14 06:47:42;;;;;;;74.97;22.50;;;5.10;99.90;;;;;;5112945;27;20227;-76
2022/01/14 06:50:09;;;;;;;73.00;22.93;;;5.20;99.90;;;;;;5108860;28;20314;-75
2022/01/14 06:52:36;;;;;;;76.07;22.53;;;5.20;99.90;;;;;;5102470;28;20213;-75
2022/01/14 06:55:03;;;;;;;74.70;22.00;;;5.30;99.90;;;;;;5111690;28;20221;-76
2022/01/14 06:57:30;;;;;;;68.57;21.70;;;5.30;99.90;;;;;;5110272;28;20339;-76
2022/01/14 06:59:57;;;;;;;74.90;24.33;;;5.30;99.90;;;;;;5102438;28;20768;-76
2022/01/14 07:02:23;;;;;;;76.17;22.30;;;5.30;99.90;;;;;;5108661;28;20214;-76
2022/01/14 07:04:50;;;;;;;77.80;23.43;;;5.30;99.90;;;;;;5092077;28;20227;-76
2022/01/14 07:07:17;;;;;;;84.33;23.60;;;5.30;99.90;;;;;;5106978;28;20209;-75
2022/01/14 07:09:55;;;;;;;73.27;22.37;;;5.30;99.90;;;;;;5111230;28;20289;-76
2022/01/14 07:12:28;;;;;;;85.30;22.37;;;5.30;99.90;;;;;;5108321;28;20554;-76
2022/01/14 07:14:56;;;;;;;89.20;25.73;;;5.30;99.90;;;;;;5110637;27;20293;-77
2022/01/14 07:17:24;;;;;;;531.53;78.43;;;5.30;99.90;;;;;;5100793;28;20280;-76
2022/01/14 07:19:54;;;;;;;94.57;26.40;;;5.30;99.90;;;;;;5115497;27;20291;-77
2022/01/14 07:22:21;;;;;;;86.97;26.37;;;5.30;99.90;;;;;;5104910;28;20684;-77
2022/01/14 07:24:48;;;;;;;79.03;24.90;;;5.30;99.90;;;;;;5112168;27;20203;-75
2022/01/14 07:27:15;;;;;;;77.80;22.73;;;5.40;99.90;;;;;;5120317;27;20215;-75
2022/01/14 07:29:42;;;;;;;72.20;23.50;;;5.40;99.90;;;;;;5112310;27;20325;-75
2022/01/14 07:32:09;;;;;;;78.80;24.07;;;5.40;99.90;;;;;;5111107;27;20306;-75
2022/01/14 07:34:36;;;;;;;88.13;24.30;;;5.40;99.90;;;;;;5113845;27;20650;-75
2022/01/14 07:37:03;;;;;;;79.47;23.33;;;5.50;99.90;;;;;;5112373;27;20304;-77
2022/01/14 07:39:29;;;;;;;77.13;23.80;;;5.50;99.90;;;;;;5111641;27;20609;-75
2022/01/14 07:41:56;;;;;;;79.70;25.27;;;5.50;99.90;;;;;;5107179;27;20206;-76
2022/01/14 07:44:23;;;;;;;69.10;23.50;;;5.50;99.90;;;;;;5117645;27;20232;-76
2022/01/14 07:46:50;;;;;;;73.97;25.53;;;5.60;99.90;;;;;;5113176;27;20225;-76
2022/01/14 07:49:17;;;;;;;77.57;25.53;;;5.60;99.90;;;;;;5105841;27;20602;-77
2022/01/14 07:51:43;;;;;;;73.03;24.87;;;5.70;99.90;;;;;;5108196;27;20244;-77
2022/01/14 07:54:10;;;;;;;64.23;23.23;;;5.70;99.90;;;;;;5112042;27;20204;-77
2022/01/14 07:56:45;;;;;;;75.70;25.47;;;5.70;99.90;;;;;;5113154;27;20212;-77
2022/01/14 07:59:17;;;;;;;68.03;24.67;;;5.70;99.90;;;;;;5113504;27;20940;-77
2022/01/14 08:01:45;;;;;;;71.57;24.80;;;5.80;99.90;;;;;;5116611;27;20250;-77
2022/01/14 08:04:13;;;;;;;72.07;24.67;;;5.80;99.90;;;;;;5109975;27;20247;-76
2022/01/14 08:06:46;;;;;;;71.80;25.37;;;5.80;99.90;;;;;;5112611;27;20210;-77
2022/01/14 08:09:14;;;;;;;95.03;29.07;;;5.80;99.90;;;;;;5115930;27;20959;-76
2022/01/14 08:11:42;;;;;;;78.30;25.30;;;5.80;99.90;;;;;;5111028;27;20559;-76
2022/01/14 08:14:09;;;;;;;78.27;25.30;;;5.80;99.90;;;;;;5106091;27;20208;-77
2022/01/14 08:16:36;;;;;;;71.30;25.60;;;5.90;99.90;;;;;;5101496;27;20218;-76
2022/01/14 08:19:02;;;;;;;73.97;25.23;;;5.90;99.90;;;;;;5099107;27;20562;-76
2022/01/14 08:21:29;;;;;;;63.50;24.63;;;5.90;99.90;;;;;;5112331;27;20295;-76
2022/01/14 08:23:57;;;;;;;67.40;24.23;;;6.00;99.90;;;;;;5110957;27;20358;-77
2022/01/14 08:26:24;;;;;;;68.87;24.50;;;5.90;99.90;;;;;;5115105;27;20233;-77
2022/01/14 08:28:51;;;;;;;72.63;25.03;;;6.00;99.90;;;;;;5111762;27;20196;-77
2022/01/14 08:31:18;;;;;;;64.17;24.93;;;6.00;99.90;;;;;;5103451;27;20228;-76
2022/01/14 08:33:46;;;;;;;71.83;26.30;;;6.00;99.90;;;;;;5114485;27;20792;-76
2022/01/14 08:36:13;;;;;;;70.07;24.53;;;6.00;99.90;;;;;;5111627;27;20205;-76
2022/01/14 08:38:40;;;;;;;80.30;25.93;;;6.00;99.90;;;;;;5108650;27;20207;-76
2022/01/14 08:41:07;;;;;;;66.33;25.07;;;6.00;99.90;;;;;;5111698;27;20208;-76
2022/01/14 08:43:34;;;;;;;64.87;26.43;;;6.10;99.90;;;;;;5095133;27;20211;-76
2022/01/14 08:46:03;;;;;;;70.30;24.97;;;6.10;99.90;;;;;;5111498;27;20221;-76
2022/01/14 08:48:31;;;;;;;71.37;26.27;;;6.10;99.90;;;;;;5100356;28;20833;-76
2022/01/14 08:50:58;;;;;;;60.83;23.03;;;6.10;99.90;;;;;;5107892;27;20304;-76
2022/01/14 08:53:27;;;;;;;61.10;24.53;;;6.10;99.90;;;;;;5112540;27;20241;-76
2022/01/14 08:55:53;;;;;;;124.77;30.30;;;6.10;99.90;;;;;;5107879;27;20218;-76
2022/01/14 08:58:20;;;;;;;81.67;25.80;;;6.10;99.90;;;;;;5112578;27;20636;-76
2022/01/14 09:00:49;;;;;;;65.40;26.37;;;6.10;99.90;;;;;;5111058;27;20220;-76
2022/01/14 09:03:16;;;;;;;59.83;23.40;;;6.10;99.90;;;;;;5091707;28;20213;-76
2022/01/14 09:05:43;;;;;;;62.40;25.10;;;6.10;99.90;;;;;;5110325;27;20202;-76
2022/01/14 09:08:09;;;;;;;65.67;24.27;;;6.20;99.90;;;;;;5112130;27;20218;-77
2022/01/14 09:10:36;;;;;;;65.40;24.67;;;6.20;99.90;;;;;;5109463;27;20600;-77
2022/01/14 09:13:03;;;;;;;60.27;23.80;;;6.20;99.90;;;;;;5108278;27;20323;-77
2022/01/14 09:15:30;;;;;;;65.67;23.67;;;6.30;99.90;;;;;;5107526;27;20290;-77
2022/01/14 09:17:56;;;;;;;67.47;24.33;;;6.30;99.90;;;;;;5105661;27;20322;-78
2022/01/14 09:20:23;;;;;;;58.53;24.03;;;6.30;99.90;;;;;;5110121;27;20242;-78
2022/01/14 09:22:56;;;;;;;63.43;24.20;;;6.30;99.90;;;;;;5093296;27;20235;-77
2022/01/14 09:25:23;;;;;;;55.67;22.10;;;6.30;99.90;;;;;;5108674;27;20214;-77
2022/01/14 09:27:52;;;;;;;67.93;25.70;;;6.40;99.90;;;;;;5113153;27;20238;-77
2022/01/14 09:30:22;;;;;;;60.33;23.67;;;6.40;99.90;;;;;;5113136;27;20228;-77
2022/01/14 09:32:49;;;;;;;61.57;26.27;;;6.40;99.90;;;;;;5115831;27;20576;-78
2022/01/14 09:35:17;;;;;;;66.33;25.13;;;6.40;99.90;;;;;;5102512;27;20209;-76
2022/01/14 09:37:45;;;;;;;63.00;25.43;;;6.50;99.90;;;;;;5108538;27;20209;-76
2022/01/14 09:40:14;;;;;;;59.63;24.13;;;6.50;99.90;;;;;;5105934;27;20285;-78
2022/01/14 09:42:44;;;;;;;62.27;25.60;;;6.50;99.90;;;;;;5111875;27;20211;-78
2022/01/14 09:45:11;;;;;;;62.50;26.53;;;6.50;99.90;;;;;;5098438;27;20217;-76
2022/01/14 09:47:47;;;;;;;62.23;26.07;;;6.50;99.90;;;;;;5089600;27;20730;-77
2022/01/14 09:50:14;;;;;;;65.67;30.23;;;6.60;99.90;;;;;;5111603;27;20222;-79
2022/01/14 09:52:41;;;;;;;65.40;25.27;;;6.60;99.90;;;;;;5110333;27;20215;-77
2022/01/14 09:55:08;;;;;;;55.67;24.90;;;6.60;99.90;;;;;;5110397;27;20215;-77
2022/01/14 09:57:35;;;;;;;56.00;24.33;;;6.60;99.90;;;;;;5110068;27;20257;-77
2022/01/14 10:00:05;;;;;;;64.77;25.73;;;6.60;99.90;;;;;;5105567;27;20203;-76
2022/01/14 10:02:37;;;;;;;60.40;25.13;;;6.70;99.90;;;;;;5105592;27;20225;-77
2022/01/14 10:05:06;;;;;;;65.33;25.33;;;6.70;99.90;;;;;;5107431;27;20223;-77
2022/01/14 10:07:33;;;;;;;53.83;24.63;;;6.70;99.90;;;;;;5092192;28;20272;-77
2022/01/14 10:10:20;;;;;;;58.00;25.23;;;6.80;99.90;;;;;;5107807;27;20211;-78
2022/01/14 10:12:47;;;;;;;51.97;24.30;;;6.80;99.90;;;;;;5113019;27;20615;-79
2022/01/14 10:15:14;;;;;;;51.30;23.57;;;6.90;99.90;;;;;;5108353;27;20825;-78
2022/01/14 10:17:43;;;;;;;51.87;23.43;;;6.90;99.90;;;;;;5102365;27;20617;-77
2022/01/14 10:20:15;;;;;;;49.53;21.90;;;6.90;99.90;;;;;;5109370;27;20633;-79
2022/01/14 10:22:45;;;;;;;49.07;22.83;;;6.90;99.90;;;;;;5100643;27;20203;-77
2022/01/14 10:25:17;;;;;;;52.27;22.93;;;6.90;99.90;;;;;;5106229;27;20626;-78
2022/01/14 10:27:46;;;;;;;47.70;22.27;;;6.90;99.90;;;;;;5110377;27;20598;-76
2022/01/14 10:30:28;;;;;;;54.67;23.00;;;6.90;99.90;;;;;;5102581;27;20580;-77
2022/01/14 10:32:57;;;;;;;53.97;23.53;;;7.00;99.90;;;;;;5108114;27;20309;-76
2022/01/14 10:35:26;;;;;;;49.87;22.83;;;7.00;99.90;;;;;;5104597;28;20611;-77
2022/01/14 10:38:00;;;;;;;56.60;24.83;;;7.00;99.90;;;;;;5098255;27;20206;-77
2022/01/14 10:40:29;;;;;;;48.93;23.13;;;7.00;99.90;;;;;;5110553;27;20238;-77
2022/01/14 10:43:03;;;;;;;52.13;23.13;;;7.00;99.90;;;;;;5094005;27;20198;-77
2022/01/14 10:45:51;;;;;;;50.10;23.67;;;7.00;99.90;;;;;;5106596;28;20253;-77
2022/01/14 10:48:32;;;;;;;44.53;22.47;;;7.00;99.90;;;;;;5109120;27;20714;-78
2022/01/14 10:51:05;;;;;;;60.27;21.70;;;7.10;99.90;;;;;;5102478;28;20237;-77
2022/01/14 10:53:35;;;;;;;46.40;22.97;;;7.30;99.90;;;;;;5092578;28;20234;-77
2022/01/14 10:56:17;;;;;;;53.43;22.90;;;7.30;99.90;;;;;;5109891;28;20292;-78
2022/01/14 10:58:46;;;;;;;51.80;22.53;;;7.30;99.90;;;;;;5103291;28;20667;-77
2022/01/14 11:01:18;;;;;;;51.50;22.83;;;7.30;99.90;;;;;;5098004;28;20211;-77
2022/01/14 11:03:48;;;;;;;49.97;23.67;;;7.40;99.90;;;;;;5117785;28;20252;-77
2022/01/14 11:06:28;;;;;;;47.70;23.17;;;7.50;99.90;;;;;;5111084;28;20212;-77
2022/01/14 11:09:00;;;;;;;47.83;22.77;;;7.50;99.90;;;;;;5100567;28;20239;-78
2022/01/14 11:11:30;;;;;;;47.67;22.33;;;7.50;99.90;;;;;;5106769;28;20229;-77
2022/01/14 11:13:57;;;;;;;52.50;22.90;;;7.60;99.90;;;;;;5103897;28;20666;-77
2022/01/14 11:16:25;;;;;;;52.47;22.37;;;7.60;99.90;;;;;;5105710;28;20264;-78
2022/01/14 11:18:56;;;;;;;43.00;22.13;;;7.70;99.90;;;;;;5112170;28;20612;-77
2022/01/14 11:24:20;;;;;;;40.67;20.27;;;7.70;99.90;;;;;;5107696;28;20258;-77
2022/01/14 11:26:49;;;;;;;47.90;21.63;;;7.80;99.90;;;;;;5099439;28;20278;-80
2022/01/14 11:29:20;;;;;;;45.40;22.27;;;7.80;99.90;;;;;;5110375;28;20245;-76
2022/01/14 11:31:59;;;;;;;42.00;21.77;;;7.80;99.90;;;;;;5105350;28;20237;-78
2022/01/14 11:34:42;;;;;;;41.20;21.20;;;7.80;99.90;;;;;;5099536;28;20201;-78
2022/01/14 11:37:11;;;;;;;43.67;21.63;;;7.90;99.90;;;;;;5105922;28;20591;-77
2022/01/14 11:39:40;;;;;;;49.63;20.93;;;7.90;99.90;;;;;;5107589;28;20810;-77
2022/01/14 11:42:12;;;;;;;47.67;21.00;;;7.90;99.90;;;;;;5101258;28;20203;-78
2022/01/14 11:44:52;;;;;;;45.37;22.50;;;8.00;99.90;;;;;;5106460;28;20226;-77
2022/01/14 11:47:25;;;;;;;39.33;21.70;;;7.90;99.90;;;;;;5104340;28;20313;-77
2022/01/14 11:49:54;;;;;;;37.23;20.13;;;7.90;99.90;;;;;;5090879;28;20232;-77
2022/01/14 11:52:42;;;;;;;48.67;22.07;;;8.00;99.90;;;;;;5107529;28;20222;-77
2022/01/14 11:55:21;;;;;;;41.40;21.00;;;8.00;99.90;;;;;;5108345;28;20598;-78
2022/01/14 11:57:56;;;;;;;43.70;21.40;;;7.90;99.90;;;;;;5108518;28;20206;-77
2022/01/14 12:00:39;;;;;;;39.60;20.47;;;8.00;99.90;;;;;;5106065;28;20226;-77
2022/01/14 12:03:15;;;;;;;52.10;22.07;;;8.00;99.90;;;;;;5109647;27;20213;-78
2022/01/14 12:05:50;;;;;;;45.67;21.47;;;8.10;99.90;;;;;;5109444;27;20679;-78
2022/01/14 12:08:19;;;;;;;43.53;21.03;;;8.10;99.90;;;;;;5111435;27;20252;-79
2022/01/14 12:10:51;;;;;;;41.20;20.53;;;8.10;99.90;;;;;;5114705;27;20234;-79
2022/01/14 12:13:30;;;;;;;35.60;18.83;;;8.20;99.90;;;;;;5109975;27;20205;-77
2022/01/14 12:16:35;;;;;;;40.13;19.23;;;8.20;99.90;;;;;;5096663;27;20315;-78
2022/01/14 12:19:02;;;;;;;35.03;18.23;;;8.20;99.90;;;;;;5110529;27;20292;-78
2022/01/14 12:21:44;;;;;;;41.70;18.90;;;8.20;99.90;;;;;;5112629;27;20584;-78
2022/01/14 12:24:30;;;;;;;33.23;17.10;;;8.20;99.90;;;;;;5107729;28;20266;-77
2022/01/14 12:27:12;;;;;;;34.80;16.20;;;8.30;99.90;;;;;;5111736;27;20728;-79
2022/01/14 12:29:45;;;;;;;36.00;16.70;;;8.30;99.90;;;;;;5111242;27;20201;-78
2022/01/14 12:32:12;;;;;;;33.83;15.77;;;8.30;99.90;;;;;;5099693;28;20685;-77
2022/01/14 12:35:03;;;;;;;32.13;15.77;;;8.40;99.90;;;;;;5110531;27;20206;-80
2022/01/14 12:37:51;;;;;;;27.60;14.93;;;8.40;99.90;;;;;;5102154;27;20288;-78
2022/01/14 12:40:36;;;;;;;28.87;14.50;;;8.40;99.90;;;;;;5105211;27;20243;-78
2022/01/14 12:43:09;;;;;;;27.70;13.00;;;8.40;99.90;;;;;;5103378;27;20238;-78
2022/01/14 12:46:14;;;;;;;27.00;13.87;;;8.40;99.90;;;;;;5080986;28;20246;-77
2022/01/14 12:48:55;;;;;;;29.20;13.23;;;8.40;99.90;;;;;;5083806;28;20246;-78
2022/01/14 12:51:22;;;;;;;25.43;13.47;;;8.40;99.90;;;;;;5095502;28;20304;-76
2022/01/14 12:53:57;;;;;;;26.50;14.23;;;8.50;99.90;;;;;;5093962;28;20574;-77
2022/01/14 12:56:27;;;;;;;29.07;14.33;;;8.50;99.90;;;;;;5089872;28;20197;-77
2022/01/14 12:58:58;;;;;;;28.70;13.60;;;8.50;99.90;;;;;;5087239;28;20206;-78
2022/01/14 13:01:31;;;;;;;30.47;12.53;;;8.50;99.90;;;;;;5083520;28;20369;-77
2022/01/14 13:04:01;;;;;;;28.03;13.73;;;8.60;99.90;;;;;;5083715;28;20205;-77
2022/01/14 13:06:40;;;;;;;26.50;12.30;;;8.50;99.90;;;;;;5083683;28;20747;-77
2022/01/14 13:09:07;;;;;;;28.77;12.17;;;8.50;99.90;;;;;;5089738;28;20291;-77
2022/01/14 13:12:01;;;;;;;31.30;13.40;;;8.50;99.90;;;;;;5086924;28;20649;-78
2022/01/14 13:14:39;;;;;;;24.60;13.40;;;8.40;99.90;;;;;;5089981;28;20295;-77